Time;durP1;ratioP1;P1;durP2;ratioP2;P2;SDS_P1;SDS_P2;PMS_P1;PMS_P2;Temp;Humidity;BMP_temperature;BMP_pressure;BME280_temperature;BME280_humidity;BME280_pressure;Samples;Min_cycle;Max_cycle;Signal;HPM_P1;HPM_P2
2023/02/16 00:00:28;;;;;;;32.05;24.05;;;6.80;99.90;;;;;;2075307;28;20029;-72
2023/02/16 00:01:30;;;;;;;34.58;25.00;;;6.80;99.90;;;;;;2075316;28;20021;-72
2023/02/16 00:02:30;;;;;;;34.47;23.52;;;6.80;99.90;;;;;;2073336;28;20054;-71
2023/02/16 00:03:31;;;;;;;35.38;25.63;;;6.80;99.90;;;;;;2075244;28;20018;-72
2023/02/16 00:04:31;;;;;;;32.47;23.42;;;6.80;99.90;;;;;;2074450;28;20032;-71
2023/02/16 00:05:33;;;;;;;33.65;23.75;;;6.70;99.90;;;;;;2077191;28;20052;-71
2023/02/16 00:06:34;;;;;;;33.22;24.48;;;6.80;99.90;;;;;;2077742;28;20036;-72
2023/02/16 00:07:35;;;;;;;32.85;24.33;;;6.70;99.90;;;;;;2075439;28;20037;-71
2023/02/16 00:08:35;;;;;;;31.92;23.70;;;6.70;99.90;;;;;;2074206;28;20025;-72
2023/02/16 00:09:36;;;;;;;34.35;25.65;;;6.60;99.90;;;;;;2075590;28;20026;-71
2023/02/16 00:10:37;;;;;;;33.88;24.77;;;6.60;99.90;;;;;;2074659;28;20116;-71
2023/02/16 00:14:21;;;;;;;36.05;25.63;;;6.50;99.90;;;;;;2075510;28;20396;-71
2023/02/16 00:15:22;;;;;;;33.92;26.00;;;6.50;99.90;;;;;;2074852;28;20021;-71
2023/02/16 00:16:23;;;;;;;35.00;26.77;;;6.50;99.90;;;;;;2074814;28;20033;-71
2023/02/16 00:17:24;;;;;;;35.05;25.77;;;6.50;99.90;;;;;;2074013;28;20045;-71
2023/02/16 00:18:25;;;;;;;36.15;26.13;;;6.50;99.90;;;;;;2072303;28;20520;-71
2023/02/16 00:19:34;;;;;;;37.50;25.80;;;6.50;99.90;;;;;;2073781;28;20033;-71
2023/02/16 00:20:34;;;;;;;35.80;25.15;;;6.50;99.90;;;;;;2074063;28;20022;-71
2023/02/16 00:21:35;;;;;;;32.88;25.63;;;6.50;99.90;;;;;;2074560;28;20018;-72
2023/02/16 00:22:35;;;;;;;34.63;25.05;;;6.50;99.90;;;;;;2083001;28;20025;-71
2023/02/16 00:23:36;;;;;;;35.47;26.02;;;6.50;99.90;;;;;;2082027;28;20021;-72
2023/02/16 00:24:37;;;;;;;33.28;24.98;;;6.50;99.90;;;;;;2074538;28;20540;-72
2023/02/16 00:25:38;;;;;;;39.35;25.98;;;6.50;99.90;;;;;;2073627;28;20033;-72
2023/02/16 00:26:40;;;;;;;33.70;25.58;;;6.50;99.90;;;;;;2072974;28;20115;-71
2023/02/16 00:27:41;;;;;;;38.53;26.55;;;6.50;99.90;;;;;;2075108;28;20025;-71
2023/02/16 00:28:42;;;;;;;36.65;26.13;;;6.40;99.90;;;;;;2075424;28;20022;-71
2023/02/16 00:29:42;;;;;;;35.63;25.65;;;6.40;99.90;;;;;;2074716;28;20473;-71
2023/02/16 00:30:43;;;;;;;34.47;25.88;;;6.40;99.90;;;;;;2073314;28;20045;-71
2023/02/16 00:31:44;;;;;;;45.05;26.00;;;6.40;99.90;;;;;;2072550;28;20572;-71
2023/02/16 00:32:44;;;;;;;35.03;26.80;;;6.40;99.90;;;;;;2076397;28;20075;-71
2023/02/16 00:33:45;;;;;;;35.92;26.52;;;6.40;99.90;;;;;;2077302;28;20022;-71
2023/02/16 00:34:46;;;;;;;38.30;25.33;;;6.40;99.90;;;;;;2076185;28;20108;-72
2023/02/16 00:35:47;;;;;;;35.92;25.88;;;6.40;99.90;;;;;;2074965;28;20021;-71
2023/02/16 00:36:48;;;;;;;35.67;26.35;;;6.40;99.90;;;;;;2075466;28;20022;-71
2023/02/16 00:37:48;;;;;;;35.42;26.20;;;6.40;99.90;;;;;;2074611;28;20083;-71
2023/02/16 00:38:49;;;;;;;32.90;24.90;;;6.40;99.90;;;;;;2074562;28;20116;-71
2023/02/16 00:39:50;;;;;;;37.45;26.08;;;6.40;99.90;;;;;;2075416;28;20132;-71
2023/02/16 00:40:50;;;;;;;35.85;26.35;;;6.30;99.90;;;;;;2074224;28;20382;-71
2023/02/16 00:41:53;;;;;;;36.58;26.15;;;6.30;99.90;;;;;;2077993;28;20120;-71
2023/02/16 00:42:54;;;;;;;39.55;26.83;;;6.30;99.90;;;;;;2075137;28;20021;-71
2023/02/16 00:43:54;;;;;;;37.08;26.30;;;6.30;99.90;;;;;;2077603;28;20040;-71
2023/02/16 00:44:57;;;;;;;35.58;25.75;;;6.30;99.90;;;;;;2072977;28;20728;-72
2023/02/16 00:45:58;;;;;;;37.95;26.13;;;6.30;99.90;;;;;;2076067;28;20049;-71
2023/02/16 00:47:15;;;;;;;41.88;27.17;;;6.20;99.90;;;;;;2075699;28;20041;-72
2023/02/16 00:48:15;;;;;;;37.45;26.52;;;6.20;99.90;;;;;;2076479;28;20037;-71
2023/02/16 00:49:18;;;;;;;36.08;25.38;;;6.20;99.90;;;;;;2075975;28;20466;-72
2023/02/16 00:50:30;;;;;;;34.72;25.65;;;6.20;99.90;;;;;;2082637;28;20032;-71
2023/02/16 00:51:31;;;;;;;37.03;26.25;;;6.20;99.90;;;;;;2082732;28;20033;-72
2023/02/16 00:52:37;;;;;;;36.72;26.63;;;6.20;99.90;;;;;;2076870;28;20117;-71
2023/02/16 00:53:38;;;;;;;35.65;25.75;;;6.20;99.90;;;;;;2075923;28;20026;-71
2023/02/16 00:54:38;;;;;;;36.08;26.67;;;6.20;99.90;;;;;;2074772;28;20084;-71
2023/02/16 00:55:40;;;;;;;36.75;25.58;;;6.10;99.90;;;;;;2075504;28;20718;-71
2023/02/16 00:56:41;;;;;;;37.90;25.48;;;6.20;99.90;;;;;;2075950;28;20010;-71
2023/02/16 00:57:50;;;;;;;35.33;25.52;;;6.10;99.90;;;;;;2083364;28;20033;-71
2023/02/16 00:58:52;;;;;;;37.45;25.85;;;6.10;99.90;;;;;;2083344;28;20036;-71
2023/02/16 01:00:05;;;;;;;35.97;26.65;;;6.10;99.90;;;;;;2076750;28;20087;-71
2023/02/16 01:01:11;;;;;;;39.92;27.15;;;6.10;99.90;;;;;;2074940;28;20026;-71
2023/02/16 01:02:12;;;;;;;35.08;25.73;;;6.10;99.90;;;;;;2076076;28;20188;-72
2023/02/16 01:03:23;;;;;;;39.17;26.38;;;6.10;99.90;;;;;;2077147;28;20037;-71
2023/02/16 01:04:23;;;;;;;;;;;6.10;99.90;;;;;;2073246;28;20107;-72
2023/02/16 01:05:24;;;;;;;36.28;25.33;;;6.00;99.90;;;;;;2076226;28;19964;-71
2023/02/16 01:11:56;;;;;;;39.60;26.52;;;6.00;99.90;;;;;;2075791;28;20037;-71
2023/02/16 01:12:57;;;;;;;35.83;25.95;;;6.00;99.90;;;;;;2075388;28;20544;-71
2023/02/16 01:13:58;;;;;;;38.78;26.92;;;6.00;99.90;;;;;;2073532;28;20622;-72
2023/02/16 01:14:58;;;;;;;36.30;26.58;;;6.00;99.90;;;;;;2071527;28;20098;-72
2023/02/16 01:15:59;;;;;;;36.42;25.80;;;5.90;99.90;;;;;;2075817;28;20116;-71
2023/02/16 01:16:59;;;;;;;36.15;27.20;;;6.00;99.90;;;;;;2076339;28;20030;-72
2023/02/16 01:18:00;;;;;;;39.63;28.30;;;5.90;99.90;;;;;;2075253;28;20080;-71
2023/02/16 01:19:01;;;;;;;34.97;26.42;;;5.90;99.90;;;;;;2075394;28;20076;-73
2023/02/16 01:20:01;;;;;;;38.72;26.10;;;6.00;99.90;;;;;;2074261;28;20025;-73
2023/02/16 01:21:02;;;;;;;36.55;25.92;;;6.00;99.90;;;;;;2075539;28;20033;-73
2023/02/16 01:22:02;;;;;;;36.38;25.90;;;6.00;99.90;;;;;;2076608;28;20032;-72
2023/02/16 01:23:03;;;;;;;32.45;25.75;;;6.00;99.90;;;;;;2075610;28;20060;-73
2023/02/16 01:24:04;;;;;;;36.20;25.95;;;6.00;99.90;;;;;;2076370;28;20049;-72
2023/02/16 01:25:04;;;;;;;39.20;27.08;;;5.90;99.90;;;;;;2074191;28;20034;-73
2023/02/16 01:26:10;;;;;;;33.53;26.17;;;6.00;99.90;;;;;;2074584;28;20580;-73
2023/02/16 01:27:12;;;;;;;38.28;26.30;;;5.90;99.90;;;;;;2074456;28;20025;-73
2023/02/16 01:28:19;;;;;;;38.75;26.58;;;5.90;99.90;;;;;;2083991;28;20459;-73
2023/02/16 01:29:20;;;;;;;35.15;25.55;;;6.00;99.90;;;;;;2081495;28;20036;-73
2023/02/16 01:30:23;;;;;;;36.22;26.23;;;5.90;99.90;;;;;;2075330;28;20410;-73
2023/02/16 01:31:23;;;;;;;37.70;26.17;;;5.90;99.90;;;;;;2076190;28;20029;-73
2023/02/16 01:32:24;;;;;;;36.75;25.92;;;5.90;99.90;;;;;;2074746;28;20112;-73
2023/02/16 01:33:24;;;;;;;33.53;26.20;;;5.90;99.90;;;;;;2076498;28;20497;-73
2023/02/16 01:34:25;;;;;;;41.53;26.85;;;5.90;99.90;;;;;;2075831;28;20050;-72
2023/02/16 01:35:32;;;;;;;36.08;26.77;;;5.90;99.90;;;;;;2077724;28;20032;-73
2023/02/16 01:36:35;;;;;;;37.90;27.13;;;5.90;99.90;;;;;;2075558;28;20026;-73
2023/02/16 01:37:36;;;;;;;34.83;24.88;;;5.90;99.90;;;;;;2075358;28;20049;-72
2023/02/16 01:38:36;;;;;;;35.67;26.30;;;5.90;99.90;;;;;;2075409;28;20029;-73
2023/02/16 01:39:37;;;;;;;40.08;27.52;;;5.80;99.90;;;;;;2078658;28;20032;-72
2023/02/16 01:40:43;;;;;;;36.15;26.25;;;5.90;99.90;;;;;;2078050;28;20021;-73
2023/02/16 01:42:08;;;;;;;36.97;26.27;;;5.90;99.90;;;;;;2076567;28;20033;-72
2023/02/16 01:43:29;;;;;;;39.85;26.33;;;5.80;99.90;;;;;;2074136;28;20478;-73
2023/02/16 01:44:37;;;;;;;37.35;26.48;;;5.80;99.90;;;;;;2076075;28;20780;-72
2023/02/16 01:45:42;;;;;;;35.65;27.25;;;5.80;99.90;;;;;;2075114;28;20160;-73
2023/02/16 01:46:49;;;;;;;36.78;26.60;;;5.80;99.90;;;;;;2074092;28;20032;-72
2023/02/16 01:48:01;;;;;;;38.15;27.25;;;5.70;99.90;;;;;;2076524;28;20034;-73
2023/02/16 01:49:02;;;;;;;37.13;26.85;;;5.70;99.90;;;;;;2075558;28;20695;-73
2023/02/16 01:50:22;;;;;;;37.03;27.55;;;5.70;99.90;;;;;;2074038;28;20417;-72
2023/02/16 01:51:26;;;;;;;;;;;5.70;99.90;;;;;;2076704;28;20712;-73
2023/02/16 01:52:35;;;;;;;36.22;26.02;;;5.60;99.90;;;;;;2074215;28;19924;-73
2023/02/16 01:53:57;;;;;;;34.55;25.98;;;5.60;99.90;;;;;;2077058;28;20044;-73
2023/02/16 01:55:20;;;;;;;36.13;26.35;;;5.60;99.90;;;;;;2076355;28;20022;-72
2023/02/16 01:56:35;;;;;;;37.10;25.90;;;5.60;99.90;;;;;;2073869;28;20018;-72
2023/02/16 01:57:44;;;;;;;35.25;26.65;;;5.60;99.90;;;;;;2075164;28;20025;-73
2023/02/16 01:58:49;;;;;;;36.35;26.95;;;5.60;99.90;;;;;;2076776;28;20025;-73
2023/02/16 01:59:53;;;;;;;34.40;26.30;;;5.60;99.90;;;;;;2078203;28;20036;-73
2023/02/16 02:00:56;;;;;;;37.88;26.90;;;5.60;99.90;;;;;;2074527;28;20971;-73
2023/02/16 02:02:02;;;;;;;35.28;25.17;;;5.60;99.90;;;;;;2076988;28;20029;-73
2023/02/16 02:05:55;;;;;;;37.97;26.77;;;5.50;99.90;;;;;;2076182;28;20034;-73
2023/02/16 02:06:56;;;;;;;37.60;26.45;;;5.50;99.90;;;;;;2075281;28;20033;-73
2023/02/16 02:08:00;;;;;;;35.15;25.90;;;5.50;99.90;;;;;;2078085;28;20030;-73
2023/02/16 02:09:06;;;;;;;37.40;27.02;;;5.50;99.90;;;;;;2076392;28;20028;-72
2023/02/16 02:10:22;;;;;;;40.33;27.75;;;5.50;99.90;;;;;;2076434;28;20481;-73
2023/02/16 02:11:32;;;;;;;34.58;27.05;;;5.50;99.90;;;;;;2076495;28;20056;-73
2023/02/16 02:12:48;;;;;;;37.05;27.10;;;5.50;99.90;;;;;;2074207;28;20041;-73
2023/02/16 02:14:02;;;;;;;36.33;25.90;;;5.40;99.90;;;;;;2073271;28;20057;-73
2023/02/16 02:15:03;;;;;;;41.30;28.88;;;5.40;99.90;;;;;;2076054;28;20026;-73
2023/02/16 02:16:05;;;;;;;35.33;27.00;;;5.40;99.90;;;;;;2076878;28;20106;-72
2023/02/16 02:17:13;;;;;;;39.58;28.75;;;5.40;99.90;;;;;;2075031;28;20036;-73
2023/02/16 02:18:14;;;;;;;34.30;26.10;;;5.50;99.90;;;;;;2077980;28;20021;-73
2023/02/16 02:19:14;;;;;;;39.03;27.35;;;5.40;99.90;;;;;;2076888;28;20032;-73
2023/02/16 02:24:14;;;;;;;36.63;26.60;;;5.40;99.90;;;;;;2075958;28;20775;-73
2023/02/16 02:26:19;;;;;;;35.38;26.77;;;5.40;99.90;;;;;;2075506;28;20113;-73
2023/02/16 02:27:24;;;;;;;35.90;25.40;;;5.30;99.90;;;;;;2042591;29;20039;-72
2023/02/16 02:28:30;;;;;;;41.35;27.85;;;5.30;99.90;;;;;;2035236;29;20028;-73
2023/02/16 02:29:52;;;;;;;34.85;26.40;;;5.30;99.90;;;;;;2036123;29;20139;-73
2023/02/16 02:31:04;;;;;;;35.75;26.73;;;5.30;99.90;;;;;;2047070;28;20046;-73
2023/02/16 02:32:14;;;;;;;37.15;27.83;;;5.30;99.90;;;;;;2046725;28;20087;-73
2023/02/16 02:33:20;;;;;;;40.30;30.13;;;5.30;99.90;;;;;;2067506;28;20049;-73
2023/02/16 02:34:26;;;;;;;38.53;27.73;;;5.40;99.90;;;;;;2072800;28;20025;-72
2023/02/16 02:35:47;;;;;;;36.40;26.95;;;5.30;99.90;;;;;;2083256;28;20026;-72
2023/02/16 02:37:19;;;;;;;35.90;26.52;;;5.40;99.90;;;;;;2079877;28;20028;-73
2023/02/16 02:38:38;;;;;;;36.03;26.98;;;5.40;99.90;;;;;;2074822;28;20084;-73
2023/02/16 02:39:54;;;;;;;34.40;25.90;;;5.40;99.90;;;;;;2081277;28;20021;-73
2023/02/16 02:41:14;;;;;;;38.40;27.05;;;5.40;99.90;;;;;;2075315;28;20030;-72
2023/02/16 02:42:32;;;;;;;37.95;28.20;;;5.40;99.90;;;;;;2075712;28;20142;-73
2023/02/16 02:43:41;;;;;;;37.53;27.25;;;5.40;99.90;;;;;;2075616;28;20469;-73
2023/02/16 02:44:47;;;;;;;36.10;26.92;;;5.40;99.90;;;;;;2073534;28;20117;-72
2023/02/16 02:46:06;;;;;;;36.67;26.88;;;5.40;99.90;;;;;;2078372;28;20036;-73
2023/02/16 02:47:07;;;;;;;37.38;26.75;;;5.50;99.90;;;;;;2075290;28;20387;-73
2023/02/16 02:48:07;;;;;;;36.72;26.17;;;5.50;99.90;;;;;;2074095;28;20098;-73
2023/02/16 02:49:08;;;;;;;36.25;26.65;;;5.50;99.90;;;;;;2075266;28;20060;-73
2023/02/16 02:50:35;;;;;;;36.35;27.40;;;5.50;99.90;;;;;;2073584;28;20044;-72
2023/02/16 02:51:39;;;;;;;36.70;26.85;;;5.60;99.90;;;;;;2073627;28;20618;-73
2023/02/16 02:52:39;;;;;;;35.00;26.02;;;5.60;99.90;;;;;;2075429;28;20104;-73
2023/02/16 02:53:45;;;;;;;35.92;26.25;;;5.60;99.90;;;;;;2074800;28;20474;-73
2023/02/16 03:00:46;;;;;;;34.70;25.67;;;5.50;99.90;;;;;;2074207;28;20034;-73
2023/02/16 03:01:52;;;;;;;33.15;26.95;;;5.50;99.90;;;;;;2073866;28;20544;-73
2023/02/16 03:03:03;;;;;;;36.65;26.25;;;5.50;99.90;;;;;;2075783;28;20035;-73
2023/02/16 03:04:06;;;;;;;37.40;26.08;;;5.50;99.90;;;;;;2075286;28;20025;-72
2023/02/16 03:05:10;;;;;;;35.78;26.17;;;5.50;99.90;;;;;;2076118;28;20076;-73
2023/02/16 03:06:27;;;;;;;37.58;26.20;;;5.50;99.90;;;;;;2075941;28;20030;-73
2023/02/16 03:07:48;;;;;;;38.13;26.33;;;5.50;99.90;;;;;;2075373;28;20517;-72
2023/02/16 03:08:57;;;;;;;38.28;25.90;;;5.50;99.90;;;;;;2075305;28;20030;-73
2023/02/16 03:12:44;;;;;;;35.00;25.77;;;5.50;99.90;;;;;;2074972;28;20059;-73
2023/02/16 03:12:45;;;;;;;33.35;24.80;;;5.40;99.90;;;;;;2074454;28;19910;-73
2023/02/16 03:13:51;;;;;;;33.25;25.27;;;5.40;99.90;;;;;;2081160;28;20018;-73
2023/02/16 03:14:58;;;;;;;35.45;26.17;;;5.40;99.90;;;;;;2080296;28;20040;-73
2023/02/16 03:16:03;;;;;;;34.45;25.98;;;5.50;99.90;;;;;;2077398;28;20097;-73
2023/02/16 03:29:20;;;;;;;34.08;25.83;;;5.40;99.90;;;;;;2077268;28;20548;-73
2023/02/16 03:30:23;;;;;;;37.17;26.00;;;5.40;99.90;;;;;;2074273;28;20029;-73
2023/02/16 03:31:32;;;;;;;37.78;26.05;;;5.40;99.90;;;;;;2075754;28;20018;-74
2023/02/16 03:32:33;;;;;;;33.35;26.73;;;5.40;99.90;;;;;;2073842;28;20108;-73
2023/02/16 03:33:35;;;;;;;38.20;25.88;;;5.40;99.90;;;;;;2076222;28;20029;-73
2023/02/16 03:34:36;;;;;;;36.03;25.08;;;5.40;99.90;;;;;;2073773;28;20013;-73
2023/02/16 03:35:37;;;;;;;31.83;24.45;;;5.40;99.90;;;;;;2083230;28;20032;-72
2023/02/16 03:36:42;;;;;;;34.72;25.58;;;5.40;99.90;;;;;;2073760;28;20504;-73
2023/02/16 03:37:43;;;;;;;36.35;26.08;;;5.40;99.90;;;;;;2075079;28;20065;-72
2023/02/16 03:38:44;;;;;;;36.90;25.75;;;5.40;99.90;;;;;;2074887;28;20029;-73
2023/02/16 03:41:06;;;;;;;32.50;25.17;;;5.40;99.90;;;;;;2073543;28;20030;-72
2023/02/16 03:42:06;;;;;;;33.22;25.35;;;5.40;99.90;;;;;;2074433;28;20030;-72
2023/02/16 03:43:08;;;;;;;39.17;26.63;;;5.40;99.90;;;;;;2074048;28;20101;-72
2023/02/16 03:44:09;;;;;;;39.13;26.67;;;5.40;99.90;;;;;;2075966;28;20029;-73
2023/02/16 03:45:09;;;;;;;36.58;26.33;;;5.40;99.90;;;;;;2074852;28;20022;-72
2023/02/16 03:46:10;;;;;;;37.00;26.55;;;5.50;99.90;;;;;;2074449;28;20037;-73
2023/02/16 03:47:11;;;;;;;36.35;26.25;;;5.50;99.90;;;;;;2077718;28;20108;-72
2023/02/16 03:48:11;;;;;;;39.55;27.23;;;5.50;99.90;;;;;;2076463;28;20470;-72
2023/02/16 03:49:12;;;;;;;37.55;27.15;;;5.50;99.90;;;;;;2074250;28;20053;-73
2023/02/16 03:50:12;;;;;;;36.58;27.17;;;5.50;99.90;;;;;;2076700;28;20041;-72
2023/02/16 03:51:13;;;;;;;39.05;26.50;;;5.50;99.90;;;;;;2076031;28;20034;-73
2023/02/16 03:52:14;;;;;;;34.45;25.33;;;5.50;99.90;;;;;;2076393;28;20567;-73
2023/02/16 03:53:14;;;;;;;32.78;25.17;;;5.50;99.90;;;;;;2075891;28;20109;-73
2023/02/16 03:54:15;;;;;;;39.97;26.23;;;5.50;99.90;;;;;;2072591;28;20030;-73
2023/02/16 03:55:15;;;;;;;35.35;26.70;;;5.50;99.90;;;;;;2074529;28;20055;-73
2023/02/16 03:56:16;;;;;;;37.33;27.77;;;5.50;99.90;;;;;;2074260;28;20065;-73
2023/02/16 03:57:16;;;;;;;36.22;27.05;;;5.50;99.90;;;;;;2074063;28;20030;-73
2023/02/16 03:58:20;;;;;;;37.58;26.30;;;5.50;99.90;;;;;;2075019;28;20022;-73
2023/02/16 03:59:21;;;;;;;37.80;27.00;;;5.50;99.90;;;;;;2073436;28;20014;-73
2023/02/16 04:00:21;;;;;;;35.78;26.35;;;5.50;99.90;;;;;;2072406;28;20025;-73
2023/02/16 04:01:22;;;;;;;36.97;26.70;;;5.50;99.90;;;;;;2074606;28;20091;-73
2023/02/16 04:02:23;;;;;;;39.42;27.48;;;5.60;99.90;;;;;;2073124;28;20040;-73
2023/02/16 04:03:24;;;;;;;36.72;27.65;;;5.60;99.90;;;;;;2076115;28;20066;-72
2023/02/16 04:04:25;;;;;;;40.80;27.35;;;5.60;99.90;;;;;;2074895;28;20049;-73
2023/02/16 04:05:26;;;;;;;38.15;27.98;;;5.60;99.90;;;;;;2074212;28;20025;-73
2023/02/16 04:06:26;;;;;;;34.83;26.27;;;5.60;99.90;;;;;;2073523;28;20025;-72
2023/02/16 04:07:27;;;;;;;32.60;24.80;;;5.60;99.90;;;;;;2071615;28;20026;-73
2023/02/16 04:08:27;;;;;;;37.47;26.27;;;5.70;99.90;;;;;;2074396;28;20021;-72
2023/02/16 04:09:28;;;;;;;39.28;27.42;;;5.70;99.90;;;;;;2074800;28;20022;-73
2023/02/16 04:10:28;;;;;;;35.25;26.02;;;5.70;99.90;;;;;;2072073;28;20538;-73
2023/02/16 04:12:48;;;;;;;35.88;26.13;;;5.70;99.90;;;;;;2072971;28;20488;-73
2023/02/16 04:13:49;;;;;;;42.03;26.60;;;5.60;99.90;;;;;;2074766;28;20425;-72
2023/02/16 04:14:49;;;;;;;36.60;26.38;;;5.60;99.90;;;;;;2074153;28;20034;-73
2023/02/16 04:15:50;;;;;;;36.80;27.10;;;5.60;99.90;;;;;;2073690;28;20037;-73
2023/02/16 04:16:50;;;;;;;42.10;28.63;;;5.60;99.90;;;;;;2075009;28;20060;-73
2023/02/16 04:17:51;;;;;;;38.15;27.13;;;5.60;99.90;;;;;;2075156;28;20080;-73
2023/02/16 04:18:51;;;;;;;34.15;25.83;;;5.60;99.90;;;;;;2074621;28;20019;-73
2023/02/16 04:19:52;;;;;;;37.45;26.80;;;5.60;99.90;;;;;;2075238;28;20032;-73
2023/02/16 04:20:53;;;;;;;35.20;25.80;;;5.60;99.90;;;;;;2073697;28;20033;-73
2023/02/16 04:21:53;;;;;;;34.22;25.50;;;5.60;99.90;;;;;;2075847;28;20049;-72
2023/02/16 04:22:55;;;;;;;35.38;27.13;;;5.60;99.90;;;;;;2069895;28;20041;-73
2023/02/16 04:23:55;;;;;;;35.65;26.30;;;5.50;99.90;;;;;;2069889;28;20030;-73
2023/02/16 04:24:56;;;;;;;34.53;26.23;;;5.60;99.90;;;;;;2074847;28;20033;-73
2023/02/16 04:25:56;;;;;;;35.13;25.35;;;5.60;99.90;;;;;;2074990;28;20033;-73
2023/02/16 04:26:57;;;;;;;33.30;26.20;;;5.50;99.90;;;;;;2082860;28;20060;-73
2023/02/16 04:27:58;;;;;;;40.28;26.98;;;5.50;99.90;;;;;;2083050;28;20398;-73
2023/02/16 04:28:58;;;;;;;33.70;26.05;;;5.50;99.90;;;;;;2081645;28;20616;-72
2023/02/16 04:29:59;;;;;;;36.47;26.50;;;5.50;99.90;;;;;;2073769;28;20260;-73
2023/02/16 04:30:59;;;;;;;36.97;25.55;;;5.50;99.90;;;;;;2075603;28;20044;-73
2023/02/16 04:32:00;;;;;;;34.80;25.35;;;5.50;99.90;;;;;;2074313;28;20033;-73
2023/02/16 04:33:00;;;;;;;33.40;24.95;;;5.50;99.90;;;;;;2075911;28;20036;-73
2023/02/16 04:34:01;;;;;;;37.40;27.08;;;5.50;99.90;;;;;;2075618;28;20025;-73
2023/02/16 04:35:02;;;;;;;35.33;26.02;;;5.50;99.90;;;;;;2077788;28;20025;-73
2023/02/16 04:36:02;;;;;;;35.15;25.63;;;5.40;99.90;;;;;;2077545;28;20037;-73
2023/02/16 04:37:04;;;;;;;34.95;26.58;;;5.40;99.90;;;;;;2074156;28;20397;-73
2023/02/16 04:38:05;;;;;;;32.83;25.23;;;5.40;99.90;;;;;;2076266;28;20030;-73
2023/02/16 04:39:05;;;;;;;34.97;25.38;;;5.40;99.90;;;;;;2076223;28;20113;-73
2023/02/16 04:40:07;;;;;;;34.40;25.55;;;5.40;99.90;;;;;;2072931;28;20026;-73
2023/02/16 04:41:08;;;;;;;39.53;25.80;;;5.40;99.90;;;;;;2074778;28;20048;-73
2023/02/16 04:42:08;;;;;;;36.47;27.17;;;5.40;99.90;;;;;;2075986;28;20065;-73
2023/02/16 04:43:09;;;;;;;34.70;25.98;;;5.30;99.90;;;;;;2073958;28;20041;-73
2023/02/16 04:44:09;;;;;;;36.53;26.77;;;5.30;99.90;;;;;;2075635;28;20764;-73
2023/02/16 04:45:11;;;;;;;34.20;25.52;;;5.30;99.90;;;;;;2073694;28;20417;-73
2023/02/16 04:46:11;;;;;;;38.67;26.38;;;5.30;99.90;;;;;;2073115;28;20025;-73
2023/02/16 04:47:12;;;;;;;34.33;25.67;;;5.30;99.90;;;;;;2074215;28;20061;-73
2023/02/16 04:48:13;;;;;;;35.15;24.60;;;5.30;99.90;;;;;;2075424;28;20504;-73
2023/02/16 04:49:13;;;;;;;36.47;26.33;;;5.20;99.90;;;;;;2075082;28;20036;-73
2023/02/16 04:50:14;;;;;;;38.30;27.30;;;5.20;99.90;;;;;;2074970;28;20041;-73
2023/02/16 04:51:14;;;;;;;34.33;25.73;;;5.20;99.90;;;;;;2075087;28;20018;-73
2023/02/16 04:52:15;;;;;;;35.30;26.75;;;5.20;99.90;;;;;;2077073;28;20057;-73
2023/02/16 04:53:16;;;;;;;36.10;25.83;;;5.20;99.90;;;;;;2075591;28;20641;-73
2023/02/16 04:54:17;;;;;;;38.47;28.08;;;5.20;99.90;;;;;;2074283;28;20062;-73
2023/02/16 04:55:17;;;;;;;36.33;27.10;;;5.20;99.90;;;;;;2073680;28;20033;-73
2023/02/16 04:56:18;;;;;;;39.40;28.27;;;5.10;99.90;;;;;;2075534;28;20076;-72
2023/02/16 04:57:21;;;;;;;37.22;28.38;;;5.10;99.90;;;;;;2076926;28;20028;-73
2023/02/16 04:58:21;;;;;;;41.90;28.67;;;5.10;99.90;;;;;;2077263;28;20014;-73
2023/02/16 04:59:22;;;;;;;40.05;26.80;;;5.10;99.90;;;;;;2074094;28;20026;-73
2023/02/16 05:00:23;;;;;;;39.90;27.35;;;5.10;99.90;;;;;;2074837;28;20037;-73
2023/02/16 05:01:26;;;;;;;44.45;27.45;;;5.10;99.90;;;;;;2073723;28;20036;-73
2023/02/16 05:02:26;;;;;;;37.17;26.92;;;5.10;99.90;;;;;;2075293;28;20030;-72
2023/02/16 05:03:27;;;;;;;40.85;27.95;;;5.10;99.90;;;;;;2075647;28;20018;-73
2023/02/16 05:04:28;;;;;;;35.80;26.58;;;5.10;99.90;;;;;;2074615;28;20054;-73
2023/02/16 05:05:30;;;;;;;37.17;27.10;;;5.10;99.90;;;;;;2072448;28;20035;-73
2023/02/16 05:06:30;;;;;;;34.67;25.92;;;5.00;99.90;;;;;;2072087;28;20172;-73
2023/02/16 05:07:31;;;;;;;36.63;26.95;;;5.00;99.90;;;;;;2075078;28;20032;-73
2023/02/16 05:08:32;;;;;;;39.70;28.77;;;5.00;99.90;;;;;;2073406;28;20022;-73
2023/02/16 05:09:32;;;;;;;38.70;27.48;;;5.00;99.90;;;;;;2073235;28;20113;-73
2023/02/16 05:10:33;;;;;;;36.08;26.80;;;5.00;99.90;;;;;;2072449;28;20072;-73
2023/02/16 05:14:40;;;;;;;39.55;27.77;;;5.00;99.90;;;;;;2073384;28;20061;-73
2023/02/16 05:15:41;;;;;;;40.45;28.35;;;4.90;99.90;;;;;;2070978;28;20022;-73
2023/02/16 05:16:42;;;;;;;37.70;28.45;;;4.90;99.90;;;;;;2072212;28;20537;-73
2023/02/16 05:17:43;;;;;;;37.30;26.95;;;4.90;99.90;;;;;;2076201;28;20030;-73
2023/02/16 05:18:43;;;;;;;36.65;27.30;;;4.90;99.90;;;;;;2077500;28;20049;-73
2023/02/16 05:19:47;;;;;;;38.35;29.33;;;4.90;99.90;;;;;;2073084;28;20104;-73
2023/02/16 05:22:07;;;;;;;39.20;28.92;;;4.90;99.90;;;;;;2073802;28;20018;-73
2023/02/16 05:23:08;;;;;;;36.33;26.88;;;4.90;99.90;;;;;;2074664;28;20033;-73
2023/02/16 05:24:10;;;;;;;38.97;28.13;;;4.90;99.90;;;;;;2072630;28;20113;-73
2023/02/16 05:25:10;;;;;;;37.58;28.33;;;4.90;99.90;;;;;;2072516;28;20029;-73
2023/02/16 05:26:11;;;;;;;37.03;26.63;;;4.80;99.90;;;;;;2073953;28;20028;-72
2023/02/16 05:27:14;;;;;;;36.40;27.58;;;4.90;99.90;;;;;;2075234;28;20053;-73
2023/02/16 05:28:15;;;;;;;41.17;28.80;;;4.80;99.90;;;;;;2074623;28;20037;-73
2023/02/16 05:29:16;;;;;;;38.28;28.33;;;4.80;99.90;;;;;;2074453;28;20029;-73
2023/02/16 05:30:16;;;;;;;40.63;28.50;;;4.80;99.90;;;;;;2075064;28;20496;-72
2023/02/16 05:31:17;;;;;;;42.95;28.25;;;4.90;99.90;;;;;;2082550;28;20035;-73
2023/02/16 05:32:17;;;;;;;39.45;29.33;;;4.80;99.90;;;;;;2082626;28;20036;-73
2023/02/16 05:33:18;;;;;;;42.28;28.77;;;4.90;99.90;;;;;;2074768;28;20034;-73
2023/02/16 05:34:19;;;;;;;39.28;29.02;;;4.90;99.90;;;;;;2074738;28;20026;-73
2023/02/16 05:35:19;;;;;;;38.63;28.40;;;4.90;99.90;;;;;;2077304;28;20033;-73
2023/02/16 05:36:20;;;;;;;41.47;29.52;;;4.90;99.90;;;;;;2076726;28;20025;-73
2023/02/16 05:37:21;;;;;;;40.38;29.33;;;4.90;99.90;;;;;;2076698;28;20025;-73
2023/02/16 05:38:22;;;;;;;39.47;29.05;;;4.90;99.90;;;;;;2076445;28;20040;-73
2023/02/16 05:39:22;;;;;;;39.97;29.70;;;4.90;99.90;;;;;;2071025;28;20552;-73
2023/02/16 05:40:23;;;;;;;42.13;30.83;;;4.90;99.90;;;;;;2076412;28;20515;-73
2023/02/16 05:41:23;;;;;;;39.20;27.73;;;4.90;99.90;;;;;;2081179;28;20084;-73
2023/02/16 05:42:24;;;;;;;40.03;29.08;;;5.00;99.90;;;;;;2075913;28;20072;-73
2023/02/16 05:43:24;;;;;;;39.42;29.15;;;5.00;99.90;;;;;;2079469;28;20097;-73
2023/02/16 05:44:25;;;;;;;39.38;29.30;;;5.00;99.90;;;;;;2079467;28;20021;-73
2023/02/16 05:45:26;;;;;;;37.78;29.02;;;5.00;99.90;;;;;;2076852;28;20017;-72
2023/02/16 05:46:28;;;;;;;42.13;29.73;;;5.10;99.90;;;;;;2075894;28;20033;-73
2023/02/16 05:47:29;;;;;;;40.17;28.70;;;5.10;99.90;;;;;;2076213;28;20026;-73
2023/02/16 05:48:29;;;;;;;42.35;30.42;;;5.10;99.90;;;;;;2077744;28;20022;-73
2023/02/16 05:49:30;;;;;;;38.25;27.85;;;5.20;99.90;;;;;;2074624;28;20024;-73
2023/02/16 05:50:30;;;;;;;41.28;28.25;;;5.20;99.90;;;;;;2075529;28;20122;-72
2023/02/16 05:51:31;;;;;;;42.13;30.20;;;5.20;99.90;;;;;;2074450;28;20040;-73
2023/02/16 05:52:32;;;;;;;39.63;29.42;;;5.20;99.90;;;;;;2076196;28;20084;-73
2023/02/16 05:53:32;;;;;;;44.00;30.45;;;5.20;99.90;;;;;;2075876;28;20113;-72
2023/02/16 05:54:33;;;;;;;38.67;28.98;;;5.20;99.90;;;;;;2077471;28;20018;-73
2023/02/16 05:55:34;;;;;;;44.08;29.95;;;5.20;99.90;;;;;;2076526;28;20153;-73
2023/02/16 05:56:34;;;;;;;40.40;29.00;;;5.20;99.90;;;;;;2070139;28;20021;-72
2023/02/16 05:57:35;;;;;;;43.88;28.85;;;5.30;99.90;;;;;;2075533;28;20026;-73
2023/02/16 05:58:36;;;;;;;41.58;29.27;;;5.30;99.90;;;;;;2075912;28;20051;-73
2023/02/16 05:59:36;;;;;;;37.80;28.20;;;5.30;99.90;;;;;;2075303;28;20025;-72
2023/02/16 06:00:37;;;;;;;38.53;28.50;;;5.30;99.90;;;;;;2076137;28;20524;-73
2023/02/16 06:01:39;;;;;;;38.47;28.98;;;5.30;99.90;;;;;;2075825;28;20116;-72
2023/02/16 06:02:40;;;;;;;40.83;28.73;;;5.40;99.90;;;;;;2072610;28;20117;-73
2023/02/16 06:03:41;;;;;;;39.17;29.63;;;5.40;99.90;;;;;;2075835;28;20032;-72
2023/02/16 06:04:41;;;;;;;42.65;29.95;;;5.40;99.90;;;;;;2075608;28;20051;-72
2023/02/16 06:05:42;;;;;;;41.28;29.30;;;5.40;99.90;;;;;;2082302;28;20473;-73
2023/02/16 06:06:42;;;;;;;42.75;29.02;;;5.40;99.90;;;;;;2081817;28;20034;-73
2023/02/16 06:07:44;;;;;;;40.25;29.35;;;5.40;99.90;;;;;;2076624;28;20124;-73